createdAt,value
2019-04-03T00:03:11.154Z,10.37
2019-04-03T00:08:14.159Z,10.03
2019-04-03T00:13:16.103Z,10.23
2019-04-03T00:18:18.160Z,10.47
2019-04-03T00:23:21.973Z,10.60
2019-04-03T00:28:23.774Z,9.63
2019-04-03T00:33:25.607Z,10.83
2019-04-03T00:38:27.434Z,10.43
2019-04-03T00:43:29.626Z,10.57
2019-04-03T00:48:31.858Z,10.20
2019-04-03T00:53:33.699Z,9.93
2019-04-03T00:58:37.445Z,9.83
2019-04-03T01:03:41.405Z,9.80
2019-04-03T01:08:43.308Z,9.43
2019-04-03T01:13:45.128Z,9.90
2019-04-03T01:18:46.989Z,10.53
2019-04-03T01:23:49.073Z,10.67
2019-04-03T01:28:50.969Z,10.77
2019-04-03T01:33:52.799Z,10.90
2019-04-03T01:38:54.931Z,11.50
2019-04-03T01:43:57.462Z,11.77
2019-04-03T01:48:59.268Z,11.83
2019-04-03T01:54:02.982Z,11.40
2019-04-03T01:59:06.901Z,11.47
2019-04-03T02:04:08.633Z,11.60
2019-04-03T02:09:10.562Z,12.03
2019-04-03T02:14:12.497Z,12.23
2019-04-03T02:19:14.501Z,12.43
2019-04-03T02:24:17.427Z,12.10
2019-04-03T02:29:19.363Z,13.10
2019-04-03T02:34:21.381Z,11.63
2019-04-03T02:39:26.244Z,12.50
2019-04-03T02:44:27.117Z,13.03
2019-04-03T02:49:28.999Z,13.60
2019-04-03T02:54:35.884Z,13.27
2019-04-03T02:59:38.128Z,13.73
2019-04-03T03:04:40.055Z,13.37
2019-04-03T03:09:46.929Z,13.93
2019-04-03T03:14:48.543Z,14.33
2019-04-03T03:19:51.501Z,14.27
2019-04-03T03:24:53.550Z,14.00
2019-04-03T03:29:58.437Z,13.87
2019-04-03T03:35:12.738Z,15.27
2019-04-03T03:40:06.692Z,15.67
2019-04-03T03:45:09.359Z,16.07
2019-04-03T03:50:11.566Z,18.00
2019-04-03T03:55:13.477Z,16.63
2019-04-03T04:00:15.579Z,16.17
2019-04-03T04:05:19.828Z,16.63
2019-04-03T04:10:25.181Z,16.60
2019-04-03T04:15:29.937Z,17.37
2019-04-03T04:20:32.246Z,17.47
2019-04-03T04:25:35.644Z,17.27
2019-04-03T04:30:37.645Z,16.63
2019-04-03T04:35:39.736Z,16.27
2019-04-03T04:40:41.874Z,15.83
2019-04-03T04:45:43.708Z,16.47
2019-04-03T04:50:46.237Z,15.37
2019-04-03T04:55:48.232Z,16.00
2019-04-03T05:00:53.245Z,17.00
2019-04-03T05:05:57.244Z,16.87
2019-04-03T05:10:58.535Z,16.20
2019-04-03T05:16:00.839Z,16.40
2019-04-03T05:21:03.186Z,16.73
2019-04-03T05:26:04.999Z,17.07
2019-04-03T05:31:08.147Z,17.10
2019-04-03T05:36:10.559Z,16.50
2019-04-03T05:41:12.400Z,17.30
2019-04-03T05:46:14.213Z,16.30
2019-04-03T05:51:16.074Z,15.40
2019-04-03T05:56:18.293Z,16.43
2019-04-03T06:01:20.320Z,16.53
2019-04-03T06:06:22.159Z,15.57
2019-04-03T06:11:23.971Z,15.57
2019-04-03T06:16:26.465Z,15.87
2019-04-03T06:21:30.476Z,15.57
2019-04-03T06:26:33.064Z,16.13
2019-04-03T06:31:35.385Z,15.90
2019-04-03T06:36:37.319Z,16.80
2019-04-03T06:41:41.662Z,16.87
2019-04-03T06:46:43.002Z,17.53
2019-04-03T06:51:45.220Z,16.80
2019-04-03T06:56:47.071Z,16.97
2019-04-03T07:01:48.904Z,18.03
2019-04-03T07:06:50.956Z,15.83
2019-04-03T07:11:52.871Z,16.97
2019-04-03T07:16:54.718Z,18.57
2019-04-03T07:21:56.686Z,17.63
2019-04-03T07:26:58.685Z,17.37
2019-04-03T07:32:00.712Z,17.20
2019-04-03T07:37:02.655Z,17.00
2019-04-03T07:42:05.512Z,17.07
2019-04-03T07:47:07.592Z,18.47
2019-04-03T07:52:12.517Z,17.87
2019-04-03T07:57:16.080Z,19.07
2019-04-03T08:02:17.086Z,17.93
2019-04-03T08:07:20.720Z,18.90
2019-04-03T08:12:23.483Z,18.17
2019-04-03T08:17:25.428Z,18.50
2019-04-03T08:22:28.538Z,19.17
2019-04-03T08:27:30.584Z,19.10
2019-04-03T08:32:34.877Z,18.87
2019-04-03T08:37:36.742Z,19.77
2019-04-03T08:42:38.527Z,19.80
2019-04-03T08:47:40.525Z,19.90
2019-04-03T08:52:42.458Z,20.43
2019-04-03T08:57:46.458Z,21.33
2019-04-03T09:02:48.078Z,19.93
2019-04-03T09:07:50.038Z,20.03
2019-04-03T09:12:51.962Z,20.07
2019-04-03T09:17:55.103Z,19.40
2019-04-03T09:22:57.045Z,18.33
2019-04-03T09:27:58.904Z,18.27
2019-04-03T09:33:00.859Z,19.17
2019-04-03T09:38:03.396Z,23.07
2019-04-03T09:43:05.771Z,19.83
2019-04-03T09:48:07.782Z,19.33
2019-04-03T09:53:09.680Z,20.20
2019-04-03T09:58:11.754Z,19.37
2019-04-03T10:03:13.894Z,19.67
2019-04-03T10:08:16.040Z,18.27
2019-04-03T10:13:18.220Z,18.17
2019-04-03T10:18:21.998Z,18.67
2019-04-03T10:23:23.971Z,22.13
2019-04-03T10:28:25.911Z,20.43
2019-04-03T10:33:30.571Z,25.43
2019-04-03T10:38:31.637Z,18.87
2019-04-03T10:43:36.223Z,21.03
2019-04-03T10:48:38.129Z,20.07
2019-04-03T10:53:39.976Z,19.90
2019-04-03T10:58:43.439Z,20.40
2019-04-03T11:03:45.574Z,20.67
2019-04-03T11:08:47.758Z,20.90
2019-04-03T11:13:49.752Z,20.57
2019-04-03T11:18:58.697Z,19.10
2019-04-03T11:23:55.374Z,20.03
2019-04-03T11:28:57.339Z,18.30
2019-04-03T11:33:59.341Z,17.50
2019-04-03T11:39:11.647Z,19.70
2019-04-03T11:44:06.326Z,19.10
2019-04-03T11:49:08.353Z,19.07
2019-04-03T11:54:10.599Z,20.27
2019-04-03T11:59:12.776Z,21.10
2019-04-03T12:04:14.876Z,20.50
2019-04-03T12:09:16.845Z,21.43
2019-04-03T12:14:18.776Z,22.20
2019-04-03T12:19:22.042Z,18.77
2019-04-03T12:24:24.006Z,15.17
2019-04-03T12:29:25.839Z,13.90
2019-04-03T12:34:28.438Z,18.80
2019-04-03T12:39:31.981Z,19.30
2019-04-03T12:44:33.829Z,19.77
2019-04-03T12:49:36.058Z,21.47
2019-04-03T12:54:38.045Z,20.00
2019-04-03T12:59:40.776Z,17.03
2019-04-03T13:04:42.785Z,18.43
2019-04-03T13:09:44.604Z,20.80
2019-04-03T13:14:48.838Z,18.00
2019-04-03T13:19:50.281Z,19.10
2019-04-03T13:24:52.130Z,18.70
2019-04-03T13:29:53.982Z,18.20
2019-04-03T13:34:56.158Z,18.12
2019-04-03T13:40:00.365Z,18.82
2019-04-03T13:45:02.420Z,19.65
2019-04-03T13:50:07.350Z,18.95
2019-04-03T13:55:09.752Z,19.57
2019-04-03T14:00:19.738Z,19.42
2019-04-03T14:05:17.986Z,20.95
2019-04-03T14:10:19.922Z,20.60
2019-04-03T14:15:22.033Z,19.45
2019-04-03T14:20:24.922Z,19.20
2019-04-03T14:25:31.410Z,18.98
2019-04-03T14:30:30.653Z,18.30
2019-04-03T14:35:49.309Z,18.73
2019-04-03T14:40:36.237Z,17.95
2019-04-03T14:45:39.603Z,18.77
2019-04-03T14:50:41.985Z,19.12
2019-04-03T14:55:48.173Z,18.40
2019-04-03T15:00:49.440Z,19.67
2019-04-03T15:05:51.310Z,21.27
2019-04-03T15:10:53.556Z,21.33
2019-04-03T15:15:57.302Z,22.65
2019-04-03T15:21:01.246Z,27.13
2019-04-03T15:26:04.452Z,29.05
2019-04-03T15:31:06.512Z,24.63
2019-04-03T15:36:08.878Z,21.95
2019-04-03T15:41:11.334Z,22.05
2019-04-03T15:46:13.185Z,22.00
2019-04-03T15:51:15.167Z,21.33
2019-04-03T15:56:17.047Z,22.17
2019-04-03T16:01:19.406Z,21.80
2019-04-03T16:06:21.512Z,21.70
2019-04-03T16:11:23.632Z,22.87
2019-04-03T16:16:28.381Z,23.22
2019-04-03T16:21:31.645Z,23.02
2019-04-03T16:26:33.738Z,23.60
2019-04-03T16:31:35.564Z,24.10
2019-04-03T16:36:37.391Z,24.63
2019-04-03T16:41:42.476Z,23.40
2019-04-03T16:46:43.042Z,23.63
2019-04-03T16:51:44.895Z,25.87
2019-04-03T16:56:48.472Z,26.63
2019-04-03T17:01:51.106Z,26.80
2019-04-03T17:06:53.336Z,26.67
2019-04-03T17:11:55.276Z,28.20
2019-04-03T17:16:57.221Z,27.27
2019-04-03T17:21:59.105Z,28.60
2019-04-03T17:27:02.077Z,29.90
2019-04-03T17:32:07.805Z,29.80
2019-04-03T17:37:07.936Z,28.73
2019-04-03T17:42:09.703Z,29.63
2019-04-03T17:47:11.519Z,27.47
2019-04-03T17:52:13.406Z,27.90
2019-04-03T17:57:17.495Z,29.17
2019-04-03T18:02:19.301Z,30.30
2019-04-03T18:07:21.301Z,31.80
2019-04-03T18:12:23.084Z,29.63
2019-04-03T18:17:24.906Z,27.33
2019-04-03T18:22:26.725Z,26.03
2019-04-03T18:27:28.712Z,26.30
2019-04-03T18:32:30.542Z,25.10
2019-04-03T18:37:35.262Z,23.50
2019-04-03T18:42:37.065Z,24.03
2019-04-03T18:47:41.656Z,26.80
2019-04-03T18:52:42.823Z,31.17
2019-04-03T18:57:44.767Z,26.57
2019-04-03T19:02:46.748Z,26.70
2019-04-03T19:07:48.600Z,23.90
2019-04-03T19:12:50.437Z,25.67
2019-04-03T19:18:00.133Z,22.80
2019-04-03T19:23:02.568Z,21.83
2019-04-03T19:27:59.843Z,21.97
2019-04-03T19:33:01.851Z,21.40
2019-04-03T19:38:05.017Z,20.47
2019-04-03T19:43:07.414Z,19.67
2019-04-03T19:48:09.258Z,21.10
2019-04-03T19:53:13.199Z,20.80
2019-04-03T19:58:14.851Z,20.97
2019-04-03T20:03:17.953Z,21.23
2019-04-03T20:08:19.775Z,19.97
2019-04-03T20:13:21.605Z,20.00
2019-04-03T20:18:25.602Z,19.40
2019-04-03T20:23:30.086Z,19.97
2019-04-03T20:28:31.211Z,18.90
2019-04-03T20:33:33.242Z,19.57
2019-04-03T20:38:35.065Z,19.60
2019-04-03T20:43:38.176Z,19.53
2019-04-03T20:48:40.033Z,21.10
2019-04-03T20:53:41.848Z,20.80
2019-04-03T20:58:55.357Z,21.07
2019-04-03T21:03:47.438Z,22.73
2019-04-03T21:08:49.270Z,23.37
2019-04-03T21:13:51.120Z,22.00
2019-04-03T21:18:52.958Z,23.03
2019-04-03T21:23:54.793Z,21.97
2019-04-03T21:28:56.655Z,22.23
2019-04-03T21:34:01.547Z,21.40
2019-04-03T21:39:04.788Z,21.93
2019-04-03T21:44:06.958Z,21.33
2019-04-03T21:49:08.783Z,21.33
2019-04-03T21:54:10.687Z,21.93
2019-04-03T21:59:14.748Z,23.30
2019-04-03T22:04:16.588Z,21.40
2019-04-03T22:09:18.389Z,21.80
2019-04-03T22:14:20.203Z,21.90
2019-04-03T22:19:22.041Z,22.83
2019-04-03T22:24:24.193Z,22.37
2019-04-03T22:29:27.544Z,22.70
2019-04-03T22:34:30.005Z,22.40
2019-04-03T22:39:32.359Z,23.53
2019-04-03T22:44:34.384Z,23.03
2019-04-03T22:49:36.224Z,23.13
2019-04-03T22:54:38.330Z,22.23
2019-04-03T22:59:40.194Z,21.93
2019-04-03T23:04:43.442Z,22.27
2019-04-03T23:09:45.763Z,22.13
2019-04-03T23:14:47.569Z,22.33
2019-04-03T23:19:51.669Z,26.93
2019-04-03T23:24:53.598Z,24.67
2019-04-03T23:29:55.575Z,25.43
2019-04-03T23:34:57.934Z,24.60
2019-04-03T23:40:00.990Z,23.67
2019-04-03T23:45:04.198Z,23.00
2019-04-03T23:50:07.806Z,21.67
2019-04-03T23:55:10.109Z,23.17
